Blounts Creek, North Carolina
Current Conditions -  °F | °C
As of 3:15 AM on Tuesday 21 Oct 2014 (Local Time) from KOCW Reporting Station
Clear Clear  
Wind Chill: 53°   Ceiling: Unl
Heat Index: 53°   Visibility: 10mi
Dew Point: 52°   Wind: 0mph
Humidity: 96%   Direction: NA
Pressure: 29.94"   Gusts: NA
Location:  35.35°N, 76.96°W
Report Text: KOCW 210715Z AUTO 00000KT 10SM CLR 12/11 A2994 RMK AO2 T01170111
Loading
Personal Weather Stations






























Interactive Weather Map
Tropical Storm Tracking
New forecast layout! Learn more

10-Day Weather Forecast

Advertisements
Track Severe Weather on mobile